createdAt,value
2023-05-10T00:02:18.705Z,5.65
2023-05-10T00:04:45.946Z,6.53
2023-05-10T00:07:13.248Z,5.45
2023-05-10T00:09:41.084Z,6.07
2023-05-10T00:12:08.355Z,6.07
2023-05-10T00:14:35.719Z,5.70
2023-05-10T00:17:03.025Z,6.82
2023-05-10T00:19:30.524Z,6.43
2023-05-10T00:21:57.781Z,6.30
2023-05-10T00:24:25.040Z,8.73
2023-05-10T00:26:52.237Z,8.60
2023-05-10T00:29:19.677Z,7.47
2023-05-10T00:31:46.942Z,5.68
2023-05-10T00:34:14.163Z,6.13
2023-05-10T00:36:41.745Z,6.35
2023-05-10T00:39:09.037Z,6.10
2023-05-10T00:41:36.240Z,6.65
2023-05-10T00:44:03.705Z,6.53
2023-05-10T00:46:31.135Z,5.63
2023-05-10T00:48:58.580Z,5.93
2023-05-10T00:51:25.968Z,6.03
2023-05-10T00:53:53.266Z,5.60
2023-05-10T00:56:23.864Z,6.07
2023-05-10T00:58:51.322Z,5.97
2023-05-10T01:01:18.595Z,6.95
2023-05-10T01:03:45.956Z,5.50
2023-05-10T01:06:13.769Z,5.30
2023-05-10T01:08:41.082Z,5.40
2023-05-10T01:11:08.378Z,5.13
2023-05-10T01:13:39.339Z,5.70
2023-05-10T01:16:07.813Z,5.22
2023-05-10T01:18:39.806Z,4.95
2023-05-10T01:21:29.134Z,5.95
2023-05-10T01:24:11.565Z,5.35
2023-05-10T01:27:15.831Z,5.00
2023-05-10T01:33:20.659Z,8.52
2023-05-10T01:36:10.009Z,6.25
2023-05-10T01:38:48.835Z,7.45
2023-05-10T01:41:22.125Z,15.48
2023-05-10T01:44:04.694Z,6.72
2023-05-10T01:46:38.161Z,6.55
2023-05-10T01:49:10.002Z,7.22
2023-05-10T01:51:43.573Z,8.00
2023-05-10T01:54:11.879Z,9.55
2023-05-10T01:56:39.238Z,8.52
2023-05-10T01:59:08.431Z,6.25
2023-05-10T02:01:35.834Z,8.13
2023-05-10T02:04:03.162Z,6.53
2023-05-10T02:06:30.492Z,6.63
2023-05-10T02:08:57.735Z,6.43
2023-05-10T02:11:25.760Z,6.85
2023-05-10T02:13:52.943Z,4.88
2023-05-10T02:16:20.370Z,5.25
2023-05-10T02:18:48.318Z,4.95
2023-05-10T02:21:15.647Z,6.60
2023-05-10T02:23:43.419Z,4.97
2023-05-10T02:26:10.720Z,7.95
2023-05-10T02:28:38.638Z,4.97
2023-05-10T02:31:06.779Z,7.32
2023-05-10T02:33:34.217Z,8.60
2023-05-10T02:36:01.497Z,7.38
2023-05-10T02:38:29.173Z,7.38
2023-05-10T02:40:56.383Z,7.63
2023-05-10T02:43:23.609Z,8.93
2023-05-10T02:45:50.991Z,10.90
2023-05-10T02:48:18.458Z,10.93
2023-05-10T02:50:46.190Z,14.38
2023-05-10T02:53:17.343Z,10.88
2023-05-10T02:55:44.554Z,12.10
2023-05-10T02:58:11.826Z,17.27
2023-05-10T03:00:39.104Z,16.35
2023-05-10T03:03:06.471Z,11.60
2023-05-10T03:05:34.216Z,15.25
2023-05-10T03:08:04.769Z,10.23
2023-05-10T03:10:32.112Z,10.03
2023-05-10T03:13:02.491Z,11.75
2023-05-10T03:15:39.289Z,14.48
2023-05-10T03:18:12.219Z,14.23
2023-05-10T03:20:49.574Z,9.82
2023-05-10T03:23:43.001Z,14.38
2023-05-10T03:26:10.231Z,15.40
2023-05-10T03:28:37.523Z,13.15
2023-05-10T03:31:06.272Z,8.73
2023-05-10T03:33:33.617Z,13.25
2023-05-10T03:36:01.449Z,10.43
2023-05-10T03:38:30.561Z,8.88
2023-05-10T03:40:57.968Z,9.45
2023-05-10T03:43:25.366Z,10.77
2023-05-10T03:45:52.643Z,10.45
2023-05-10T03:48:20.163Z,10.65
2023-05-10T03:50:47.396Z,13.25
2023-05-10T03:53:14.646Z,9.52
2023-05-10T03:55:42.030Z,13.30
2023-05-10T03:58:12.028Z,12.48
2023-05-10T04:00:44.596Z,11.38
2023-05-10T04:03:12.542Z,17.30
2023-05-10T04:05:39.945Z,10.65
2023-05-10T04:08:07.386Z,12.98
2023-05-10T04:10:34.822Z,13.82
2023-05-10T04:13:02.069Z,9.48
2023-05-10T04:15:29.595Z,8.00
2023-05-10T04:17:57.177Z,6.70
2023-05-10T04:20:24.678Z,6.07
2023-05-10T04:22:52.084Z,6.25
2023-05-10T04:25:19.414Z,5.00
2023-05-10T04:27:46.776Z,6.38
2023-05-10T04:30:14.235Z,5.28
2023-05-10T04:32:41.680Z,6.43
2023-05-10T04:35:11.055Z,5.88
2023-05-10T04:37:38.633Z,6.43
2023-05-10T04:40:07.200Z,6.05
2023-05-10T04:42:34.604Z,10.77
2023-05-10T04:45:02.157Z,5.43
2023-05-10T04:47:29.739Z,5.03
2023-05-10T04:49:56.983Z,4.78
2023-05-10T04:52:24.272Z,4.63
2023-05-10T04:54:52.393Z,8.63
2023-05-10T04:57:19.580Z,4.95
2023-05-10T04:59:48.407Z,4.50
2023-05-10T05:02:17.079Z,7.05
2023-05-10T05:04:44.460Z,4.97
2023-05-10T05:07:11.722Z,6.35
2023-05-10T05:09:38.960Z,5.28
2023-05-10T05:12:06.456Z,3.90
2023-05-10T05:14:34.988Z,4.32
2023-05-10T05:17:02.317Z,7.55
2023-05-10T05:19:29.954Z,4.57
2023-05-10T05:21:57.328Z,4.88
2023-05-10T05:24:24.580Z,5.43
2023-05-10T05:26:51.790Z,5.40
2023-05-10T05:29:19.077Z,5.25
2023-05-10T05:31:46.368Z,4.90
2023-05-10T05:34:13.612Z,5.53
2023-05-10T05:36:40.911Z,5.03
2023-05-10T05:39:08.472Z,5.55
2023-05-10T05:41:35.768Z,7.70
2023-05-10T05:44:02.994Z,5.50
2023-05-10T05:46:30.676Z,4.63
2023-05-10T05:48:58.107Z,4.88
2023-05-10T05:51:25.364Z,7.50
2023-05-10T05:53:52.628Z,6.20
2023-05-10T05:56:25.175Z,5.00
2023-05-10T05:58:52.621Z,5.75
2023-05-10T06:01:20.050Z,5.72
2023-05-10T06:03:47.437Z,5.13
2023-05-10T06:06:14.832Z,4.20
2023-05-10T06:08:42.116Z,6.28
2023-05-10T06:11:09.329Z,5.22
2023-05-10T06:13:36.597Z,7.72
2023-05-10T06:16:04.101Z,6.55
2023-05-10T06:18:31.379Z,5.13
2023-05-10T06:20:58.918Z,5.43
2023-05-10T06:23:26.542Z,4.25
2023-05-10T06:25:53.776Z,6.93
2023-05-10T06:28:21.100Z,4.93
2023-05-10T06:30:48.866Z,4.70
2023-05-10T06:33:17.030Z,4.70
2023-05-10T06:35:44.562Z,5.15
2023-05-10T06:38:11.796Z,5.75
2023-05-10T06:40:42.605Z,5.47
2023-05-10T06:43:10.370Z,5.93
2023-05-10T06:45:37.600Z,5.50
2023-05-10T06:48:05.039Z,5.20
2023-05-10T06:50:32.367Z,4.32
2023-05-10T06:52:59.833Z,5.40
2023-05-10T06:55:27.554Z,5.30
2023-05-10T06:57:55.025Z,4.68
2023-05-10T07:00:22.475Z,4.25
2023-05-10T07:02:50.209Z,6.30
2023-05-10T07:05:17.877Z,5.07
2023-05-10T07:07:45.375Z,6.15
2023-05-10T07:10:12.732Z,5.03
2023-05-10T07:12:40.032Z,5.60
2023-05-10T07:15:07.985Z,5.93
2023-05-10T07:17:36.429Z,5.78
2023-05-10T07:20:04.840Z,4.85
2023-05-10T07:22:32.269Z,5.10
2023-05-10T07:24:59.527Z,5.28
2023-05-10T07:27:27.224Z,16.20
2023-05-10T07:29:54.481Z,6.20
2023-05-10T07:32:22.507Z,5.70
2023-05-10T07:34:49.901Z,5.15
2023-05-10T07:37:17.517Z,6.80
2023-05-10T07:39:44.799Z,5.45
2023-05-10T07:42:12.096Z,5.68
2023-05-10T07:44:39.334Z,4.82
2023-05-10T07:47:06.591Z,7.25
2023-05-10T07:49:33.833Z,13.32
2023-05-10T07:52:01.104Z,6.47
2023-05-10T07:54:28.338Z,6.97
2023-05-10T07:56:55.755Z,6.40
2023-05-10T07:59:23.087Z,5.47
2023-05-10T08:01:50.354Z,11.88
2023-05-10T08:04:17.676Z,6.07
2023-05-10T08:06:44.944Z,8.68
2023-05-10T08:09:12.239Z,7.18
2023-05-10T08:11:39.595Z,17.45
2023-05-10T08:14:06.920Z,7.53
2023-05-10T08:16:34.343Z,5.28
2023-05-10T08:19:01.955Z,5.47
2023-05-10T08:21:29.382Z,7.85
2023-05-10T08:23:56.684Z,5.07
2023-05-10T08:26:23.995Z,6.93
2023-05-10T08:28:51.308Z,6.03
2023-05-10T08:31:19.206Z,5.25
2023-05-10T08:33:46.492Z,5.05
2023-05-10T08:36:15.267Z,6.45
2023-05-10T08:38:42.592Z,5.22
2023-05-10T08:41:09.941Z,6.35
2023-05-10T08:43:37.312Z,5.80
2023-05-10T08:46:04.856Z,5.85
2023-05-10T08:48:32.403Z,6.65
2023-05-10T08:51:00.957Z,5.88
2023-05-10T08:53:28.598Z,6.10
2023-05-10T08:55:56.551Z,4.93
2023-05-10T08:58:23.843Z,6.45
2023-05-10T09:00:53.902Z,5.82
2023-05-10T09:03:21.611Z,16.50
2023-05-10T09:05:49.821Z,6.45
2023-05-10T09:08:19.832Z,8.13
2023-05-10T09:10:48.472Z,6.78
2023-05-10T09:13:16.559Z,6.55
2023-05-10T09:15:44.775Z,5.60
2023-05-10T09:18:12.528Z,5.97
2023-05-10T09:20:39.975Z,5.15
2023-05-10T09:23:07.696Z,5.10
2023-05-10T09:25:34.928Z,4.75
2023-05-10T09:28:02.157Z,6.88
2023-05-10T09:30:30.748Z,5.85
2023-05-10T09:32:58.911Z,5.47
2023-05-10T09:35:31.216Z,6.38
2023-05-10T09:38:04.666Z,5.32
2023-05-10T09:40:32.315Z,4.22
2023-05-10T09:43:01.057Z,4.32
2023-05-10T09:45:29.773Z,4.72
2023-05-10T09:47:57.298Z,5.78
2023-05-10T09:50:24.677Z,5.22
2023-05-10T09:52:56.987Z,5.53
2023-05-10T09:55:42.231Z,6.38
2023-05-10T09:58:11.837Z,6.90
2023-05-10T10:00:46.349Z,4.93
2023-05-10T10:03:17.698Z,5.63
2023-05-10T10:05:45.536Z,5.50
2023-05-10T10:08:13.334Z,4.35
2023-05-10T10:10:47.538Z,4.40
2023-05-10T10:13:16.042Z,6.40
2023-05-10T10:15:43.354Z,6.72
2023-05-10T10:18:14.257Z,4.70
2023-05-10T10:20:41.509Z,5.93
2023-05-10T10:23:09.312Z,5.13
2023-05-10T10:25:36.765Z,6.35
2023-05-10T10:28:48.460Z,6.15
2023-05-10T10:31:37.929Z,5.93
2023-05-10T10:34:09.802Z,6.18
2023-05-10T10:36:47.191Z,6.82
2023-05-10T10:39:14.954Z,6.00
2023-05-10T10:41:51.130Z,7.57
2023-05-10T10:44:27.573Z,5.15
2023-05-10T10:47:19.761Z,5.43
2023-05-10T10:49:47.106Z,6.53
2023-05-10T10:52:31.003Z,5.00
2023-05-10T10:54:59.468Z,5.07
2023-05-10T10:57:27.624Z,5.60
2023-05-10T11:00:30.175Z,6.45
2023-05-10T11:03:15.850Z,7.00
2023-05-10T11:05:47.237Z,7.30
2023-05-10T11:10:54.556Z,5.90
2023-05-10T11:13:30.622Z,6.15
2023-05-10T11:16:00.837Z,6.70
2023-05-10T11:18:29.638Z,6.32
2023-05-10T11:21:00.846Z,6.70
2023-05-10T11:23:52.119Z,5.00
2023-05-10T11:26:19.653Z,5.23
2023-05-10T11:28:48.049Z,6.05
2023-05-10T11:31:19.011Z,5.93
2023-05-10T11:33:53.311Z,5.43
2023-05-10T11:36:22.552Z,5.95
2023-05-10T11:38:49.824Z,6.43
2023-05-10T11:41:18.731Z,7.13
2023-05-10T11:43:47.753Z,7.85
2023-05-10T11:46:15.006Z,6.43
2023-05-10T11:48:42.719Z,5.70
2023-05-10T11:51:10.015Z,5.32
2023-05-10T11:53:37.264Z,6.38
2023-05-10T11:56:05.500Z,7.35
2023-05-10T11:58:33.342Z,7.25
2023-05-10T12:01:00.981Z,5.80
2023-05-10T12:03:29.230Z,5.68
2023-05-10T12:05:56.845Z,5.90
2023-05-10T12:08:25.432Z,5.60
2023-05-10T12:10:53.184Z,5.00
2023-05-10T12:13:21.620Z,6.55
2023-05-10T12:15:49.459Z,5.20
2023-05-10T12:18:24.386Z,5.80
2023-05-10T12:20:53.678Z,7.15
2023-05-10T12:23:21.007Z,7.97
2023-05-10T12:25:48.276Z,6.25
2023-05-10T12:28:15.650Z,6.65
2023-05-10T12:30:43.086Z,4.88
2023-05-10T12:33:12.193Z,5.10
2023-05-10T12:35:50.486Z,6.07
2023-05-10T12:38:30.664Z,7.22
2023-05-10T12:41:02.008Z,4.82
2023-05-10T12:45:57.542Z,4.85
2023-05-10T12:48:25.334Z,4.53
2023-05-10T12:50:53.182Z,4.68
2023-05-10T12:53:21.113Z,7.20
2023-05-10T12:55:48.953Z,6.15
2023-05-10T12:58:31.314Z,5.78
2023-05-10T13:01:00.205Z,5.63
2023-05-10T13:03:27.644Z,4.82
2023-05-10T13:05:55.538Z,4.78
2023-05-10T13:08:23.307Z,5.45
2023-05-10T13:10:51.161Z,6.90
2023-05-10T13:13:19.331Z,6.90
2023-05-10T13:15:46.592Z,6.03
2023-05-10T13:18:14.541Z,6.45
2023-05-10T13:20:42.039Z,5.68
2023-05-10T13:23:09.704Z,5.95
2023-05-10T13:25:37.941Z,5.28
2023-05-10T13:28:05.452Z,11.98
2023-05-10T13:30:33.181Z,12.10
2023-05-10T13:33:00.956Z,6.32
2023-05-10T13:35:28.260Z,7.03
2023-05-10T13:37:58.600Z,5.50
2023-05-10T13:40:25.989Z,7.35
2023-05-10T13:42:54.041Z,7.53
2023-05-10T13:45:22.886Z,14.40
2023-05-10T13:47:50.423Z,5.88
2023-05-10T13:50:19.468Z,5.53
2023-05-10T13:52:46.751Z,5.47
2023-05-10T13:58:05.464Z,6.15
2023-05-10T14:00:33.550Z,6.22
2023-05-10T14:03:02.113Z,5.88
2023-05-10T14:05:30.192Z,6.43
2023-05-10T14:07:58.243Z,6.45
2023-05-10T14:10:25.987Z,5.68
2023-05-10T14:12:54.019Z,4.72
2023-05-10T14:15:21.634Z,4.75
2023-05-10T14:17:50.415Z,6.20
2023-05-10T14:20:18.211Z,5.70
2023-05-10T14:22:46.407Z,6.60
2023-05-10T14:25:13.699Z,6.10
2023-05-10T14:27:41.823Z,6.18
2023-05-10T14:30:10.030Z,4.80
2023-05-10T14:32:38.213Z,5.25
2023-05-10T14:35:07.113Z,5.38
2023-05-10T14:37:34.549Z,6.70
2023-05-10T14:40:01.848Z,5.13
2023-05-10T14:42:29.926Z,7.05
2023-05-10T14:44:57.528Z,4.65
2023-05-10T14:47:25.031Z,5.13
2023-05-10T14:49:52.573Z,5.45
2023-05-10T14:52:20.428Z,6.43
2023-05-10T14:54:48.635Z,6.05
2023-05-10T14:57:16.345Z,7.03
2023-05-10T14:59:43.691Z,5.40
2023-05-10T15:02:13.169Z,8.07
2023-05-10T15:04:43.111Z,5.97
2023-05-10T15:07:16.453Z,6.85
2023-05-10T15:09:47.201Z,4.95
2023-05-10T15:12:16.772Z,6.20
2023-05-10T15:14:48.684Z,5.25
2023-05-10T15:17:17.867Z,9.07
2023-05-10T15:19:46.701Z,4.65
2023-05-10T15:22:17.414Z,4.38
2023-05-10T15:24:49.461Z,5.97
2023-05-10T15:27:20.521Z,6.70
2023-05-10T15:29:50.138Z,8.05
2023-05-10T15:32:17.522Z,5.65
2023-05-10T15:34:45.131Z,7.05
2023-05-10T15:37:12.587Z,6.85
2023-05-10T15:39:39.949Z,6.18
2023-05-10T15:42:07.396Z,5.57
2023-05-10T15:44:36.067Z,7.85
2023-05-10T15:47:06.928Z,9.73
2023-05-10T15:49:34.798Z,6.60
2023-05-10T15:52:02.060Z,8.13
2023-05-10T15:54:29.574Z,7.28
2023-05-10T15:56:56.864Z,8.32
2023-05-10T15:59:24.188Z,6.30
2023-05-10T16:01:52.056Z,8.27
2023-05-10T16:04:19.363Z,6.50
2023-05-10T16:06:46.717Z,7.38
2023-05-10T16:09:14.383Z,5.93
2023-05-10T16:11:43.241Z,7.53
2023-05-10T16:14:10.615Z,6.30
2023-05-10T16:16:38.187Z,5.32
2023-05-10T16:19:05.605Z,7.40
2023-05-10T16:21:33.477Z,5.25
2023-05-10T16:24:01.124Z,7.07
2023-05-10T16:26:28.531Z,6.05
2023-05-10T16:28:55.768Z,7.68
2023-05-10T16:31:23.415Z,5.95
2023-05-10T16:33:50.756Z,6.32
2023-05-10T16:36:18.108Z,6.03
2023-05-10T16:38:45.332Z,5.32
2023-05-10T16:41:12.746Z,5.35
2023-05-10T16:43:40.037Z,6.43
2023-05-10T16:46:11.672Z,7.32
2023-05-10T16:48:39.079Z,5.15
2023-05-10T16:51:06.448Z,5.03
2023-05-10T16:53:34.365Z,7.28
2023-05-10T16:56:01.617Z,6.25
2023-05-10T16:58:29.099Z,8.00
2023-05-10T17:00:56.422Z,6.82
2023-05-10T17:03:24.148Z,5.68
2023-05-10T17:05:51.525Z,6.95
2023-05-10T17:08:19.019Z,8.23
2023-05-10T17:10:46.639Z,5.68
2023-05-10T17:13:13.900Z,5.70
2023-05-10T17:15:41.295Z,5.97
2023-05-10T17:18:10.196Z,5.28
2023-05-10T17:20:37.761Z,7.70
2023-05-10T17:23:05.063Z,5.75
2023-05-10T17:25:35.272Z,5.93
2023-05-10T17:28:03.531Z,5.32
2023-05-10T17:30:32.800Z,6.00
2023-05-10T17:33:00.399Z,5.28
2023-05-10T17:35:27.778Z,8.23
2023-05-10T17:37:55.109Z,6.25
2023-05-10T17:40:22.398Z,7.90
2023-05-10T17:42:49.697Z,7.85
2023-05-10T17:45:17.445Z,5.65
2023-05-10T17:47:45.266Z,6.85
2023-05-10T17:50:13.352Z,5.80
2023-05-10T17:52:40.751Z,5.93
2023-05-10T17:55:08.684Z,7.75
2023-05-10T17:57:38.114Z,5.50
2023-05-10T18:00:08.623Z,5.75
2023-05-10T18:02:36.901Z,7.70
2023-05-10T18:05:04.850Z,6.82
2023-05-10T18:07:32.474Z,4.65
2023-05-10T18:10:01.134Z,5.18
2023-05-10T18:12:28.427Z,8.23
2023-05-10T18:14:55.625Z,10.73
2023-05-10T18:17:22.992Z,22.83
2023-05-10T18:19:50.267Z,15.05
2023-05-10T18:22:17.683Z,31.13
2023-05-10T18:24:45.014Z,30.10
2023-05-10T18:27:12.243Z,29.48
2023-05-10T18:29:39.574Z,21.45
2023-05-10T18:32:06.852Z,11.75
2023-05-10T18:34:35.050Z,10.75
2023-05-10T18:37:08.000Z,16.40
2023-05-10T18:39:37.246Z,11.88
2023-05-10T18:42:05.528Z,9.45
2023-05-10T18:44:33.066Z,9.65
2023-05-10T18:47:00.317Z,9.55
2023-05-10T18:49:27.906Z,8.07
2023-05-10T18:51:55.214Z,7.53
2023-05-10T18:54:22.735Z,7.88
2023-05-10T18:56:50.020Z,8.77
2023-05-10T18:59:17.284Z,8.77
2023-05-10T19:01:44.674Z,7.65
2023-05-10T19:04:12.038Z,7.15
2023-05-10T19:06:40.090Z,7.07
2023-05-10T19:09:08.716Z,8.23
2023-05-10T19:11:36.290Z,12.32
2023-05-10T19:14:05.725Z,7.85
2023-05-10T19:16:34.439Z,7.55
2023-05-10T19:19:02.528Z,8.18
2023-05-10T19:21:31.166Z,8.60
2023-05-10T19:23:58.796Z,9.80
2023-05-10T19:26:26.085Z,10.90
2023-05-10T19:28:53.697Z,8.43
2023-05-10T19:31:21.337Z,10.25
2023-05-10T19:33:48.664Z,9.70
2023-05-10T19:36:16.716Z,7.10
2023-05-10T19:38:45.104Z,8.98
2023-05-10T19:41:13.615Z,7.47
2023-05-10T19:43:42.089Z,8.75
2023-05-10T19:46:10.193Z,8.95
2023-05-10T19:48:39.252Z,7.95
2023-05-10T19:51:10.185Z,7.30
2023-05-10T19:53:40.293Z,8.55
2023-05-10T19:56:08.542Z,12.02
2023-05-10T19:58:36.907Z,13.15
2023-05-10T20:01:07.390Z,10.95
2023-05-10T20:03:35.639Z,10.57
2023-05-10T20:06:03.955Z,12.23
2023-05-10T20:08:31.661Z,15.60
2023-05-10T20:11:00.704Z,12.57
2023-05-10T20:13:28.226Z,8.85
2023-05-10T20:15:56.626Z,12.02
2023-05-10T20:18:24.039Z,12.82
2023-05-10T20:20:55.394Z,13.65
2023-05-10T20:23:22.833Z,15.88
2023-05-10T20:25:50.311Z,12.07
2023-05-10T20:28:23.909Z,12.80
2023-05-10T20:30:53.160Z,12.90
2023-05-10T20:33:21.517Z,13.93
2023-05-10T20:35:50.150Z,14.70
2023-05-10T20:38:18.291Z,10.35
2023-05-10T20:40:46.589Z,16.90
2023-05-10T20:43:14.229Z,13.93
2023-05-10T20:45:41.524Z,13.65
2023-05-10T20:48:09.604Z,14.50
2023-05-10T20:50:37.615Z,13.43
2023-05-10T20:53:04.867Z,13.82
2023-05-10T20:55:32.173Z,16.00
2023-05-10T20:57:59.377Z,12.73
2023-05-10T21:00:26.709Z,13.07
2023-05-10T21:02:53.983Z,12.23
2023-05-10T21:05:21.743Z,15.80
2023-05-10T21:07:49.497Z,12.55
2023-05-10T21:10:17.135Z,12.98
2023-05-10T21:12:44.943Z,15.30
2023-05-10T21:15:12.181Z,13.43
2023-05-10T21:17:39.806Z,12.23
2023-05-10T21:20:07.904Z,12.27
2023-05-10T21:22:35.276Z,13.27
2023-05-10T21:25:02.480Z,11.23
2023-05-10T21:27:30.005Z,14.80
2023-05-10T21:29:57.225Z,15.25
2023-05-10T21:32:24.510Z,12.75
2023-05-10T21:34:51.706Z,12.07
2023-05-10T21:37:19.295Z,11.23
2023-05-10T21:39:46.622Z,9.52
2023-05-10T21:42:13.859Z,8.35
2023-05-10T21:44:41.137Z,8.52
2023-05-10T21:47:08.537Z,8.40
2023-05-10T21:49:35.831Z,10.07
2023-05-10T21:52:03.043Z,6.97
2023-05-10T21:54:30.746Z,9.07
2023-05-10T21:56:58.111Z,14.77
2023-05-10T21:59:25.359Z,10.98
2023-05-10T22:01:52.694Z,10.38
2023-05-10T22:04:19.927Z,10.60
2023-05-10T22:06:47.903Z,9.57
2023-05-10T22:09:15.252Z,10.32
2023-05-10T22:11:42.498Z,9.45
2023-05-10T22:14:09.790Z,9.15
2023-05-10T22:16:37.074Z,9.02
2023-05-10T22:19:04.494Z,9.52
2023-05-10T22:21:31.927Z,8.35
2023-05-10T22:23:59.312Z,10.57
2023-05-10T22:26:26.831Z,7.13
2023-05-10T22:28:54.054Z,7.63
2023-05-10T22:31:21.560Z,8.82
2023-05-10T22:33:48.888Z,8.55
2023-05-10T22:36:16.262Z,11.98
2023-05-10T22:38:43.443Z,8.57
2023-05-10T22:41:10.695Z,14.90
2023-05-10T22:43:38.105Z,12.93
2023-05-10T22:46:05.364Z,10.73
2023-05-10T22:48:34.215Z,9.02
2023-05-10T22:51:01.469Z,7.70
2023-05-10T22:53:28.901Z,7.88
2023-05-10T22:55:56.162Z,13.55
2023-05-10T22:58:23.559Z,10.50
2023-05-10T23:00:51.112Z,6.45
2023-05-10T23:03:18.313Z,10.45
2023-05-10T23:05:45.779Z,6.88
2023-05-10T23:08:13.505Z,8.35
2023-05-10T23:10:41.189Z,8.55
2023-05-10T23:13:08.838Z,10.98
2023-05-10T23:15:36.470Z,7.32
2023-05-10T23:18:05.883Z,8.60
2023-05-10T23:20:33.551Z,13.48
2023-05-10T23:23:00.886Z,13.32
2023-05-10T23:25:28.160Z,13.23
2023-05-10T23:27:55.470Z,13.68
2023-05-10T23:30:22.740Z,16.92
2023-05-10T23:32:50.138Z,16.02
2023-05-10T23:35:17.465Z,17.38
2023-05-10T23:37:44.716Z,16.30
2023-05-10T23:40:13.552Z,27.35
2023-05-10T23:42:41.562Z,16.80
2023-05-10T23:45:09.042Z,22.73
2023-05-10T23:47:36.497Z,18.75
2023-05-10T23:50:05.341Z,18.38
2023-05-10T23:52:33.575Z,16.23
2023-05-10T23:55:01.054Z,20.20
2023-05-10T23:57:28.279Z,16.65
2023-05-10T23:59:55.588Z,21.33
